Time;durP1;ratioP1;P1;durP2;ratioP2;P2;SDS_P1;SDS_P2;PMS_P1;PMS_P2;Temp;Humidity;BMP_temperature;BMP_pressure;BME280_temperature;BME280_humidity;BME280_pressure;Samples;Min_cycle;Max_cycle;Signal;HPM_P1;HPM_P2
2021/05/20 00:01:34;;;;;;;2.60;1.23;;;;;;;12.07;57.77;96971.56;5095136;28;20213;-69
2021/05/20 00:04:00;;;;;;;1.30;1.00;;;;;;;12.02;57.84;96970.41;5092136;28;20182;-67
2021/05/20 00:06:27;;;;;;;2.17;1.43;;;;;;;12.20;57.59;96962.34;5088789;28;20598;-68
2021/05/20 00:08:53;;;;;;;2.57;1.20;;;;;;;12.12;57.74;96961.34;5095179;28;20182;-67
2021/05/20 00:11:18;;;;;;;1.70;1.27;;;;;;;11.86;58.63;96965.97;5093490;28;20459;-67
2021/05/20 00:13:44;;;;;;;1.43;1.30;;;;;;;12.08;58.18;96965.31;5094520;28;20273;-68
2021/05/20 00:16:09;;;;;;;1.23;1.13;;;;;;;12.16;58.01;96972.34;5077347;28;20516;-68
2021/05/20 00:18:35;;;;;;;4.80;1.17;;;;;;;12.13;58.11;96976.13;5094716;28;20189;-67
2021/05/20 00:21:01;;;;;;;2.60;1.17;;;;;;;12.14;58.06;96977.78;5094956;28;20202;-67
2021/05/20 00:23:26;;;;;;;2.10;1.20;;;;;;;12.09;58.25;96972.22;5095177;28;20186;-69
2021/05/20 00:25:52;;;;;;;1.30;1.10;;;;;;;11.87;58.78;96975.47;5101638;28;20208;-68
2021/05/20 00:28:17;;;;;;;2.60;1.70;;;;;;;11.76;59.04;96980.09;5099064;28;20209;-68
2021/05/20 00:30:43;;;;;;;3.30;1.20;;;;;;;11.55;59.90;96983.22;5094886;28;20215;-68
2021/05/20 00:33:09;;;;;;;3.03;1.13;;;;;;;11.52;59.96;96984.38;5077687;28;20239;-68
2021/05/20 00:35:34;;;;;;;1.80;1.60;;;;;;;11.21;60.84;96992.84;5092945;28;20863;-67
2021/05/20 00:38:00;;;;;;;2.60;1.40;;;;;;;11.43;60.91;96984.50;5089885;28;20181;-67
2021/05/20 00:40:25;;;;;;;1.93;1.20;;;;;;;11.47;60.22;96991.09;5098170;28;20197;-69
2021/05/20 00:42:51;;;;;;;1.60;1.50;;;;;;;11.09;61.33;96995.94;5084246;28;20194;-66
2021/05/20 00:45:17;;;;;;;2.53;1.60;;;;;;;11.46;60.24;96986.81;5065529;28;20186;-67
2021/05/20 00:47:43;;;;;;;1.93;1.13;;;;;;;11.04;61.63;96986.75;5083975;28;20181;-67
2021/05/20 00:50:10;;;;;;;1.93;1.20;;;;;;;11.73;59.63;96984.84;5079105;28;20210;-69
2021/05/20 00:52:37;;;;;;;1.37;1.27;;;;;;;11.93;58.68;96985.34;5094075;28;20428;-68
2021/05/20 00:55:05;;;;;;;3.50;1.40;;;;;;;11.77;59.17;96986.97;5092744;28;20442;-69
2021/05/20 00:57:31;;;;;;;1.40;1.30;;;;;;;12.02;58.39;96992.25;5063991;28;20440;-69
2021/05/20 01:00:05;;;;;;;1.30;1.03;;;;;;;11.63;59.80;96992.88;5094573;28;20439;-67
2021/05/20 01:02:30;;;;;;;3.20;1.37;;;;;;;11.45;60.81;96987.81;5093723;28;20753;-67
2021/05/20 01:04:56;;;;;;;2.40;1.47;;;;;;;10.86;62.92;96999.16;5088136;28;20495;-68
2021/05/20 01:07:22;;;;;;;6.03;1.60;;;;;;;11.18;62.56;96993.19;5086710;28;20641;-68
2021/05/20 01:09:47;;;;;;;1.80;1.50;;;;;;;11.72;60.60;96985.84;5093182;28;20201;-69
2021/05/20 01:12:13;;;;;;;2.50;1.50;;;;;;;11.56;61.85;96989.28;5093562;28;20204;-68
2021/05/20 01:14:42;;;;;;;1.37;1.27;;;;;;;11.40;62.26;96995.34;5090148;28;20228;-68
2021/05/20 01:17:08;;;;;;;2.03;1.13;;;;;;;11.88;61.04;96993.72;5093887;28;20205;-68
2021/05/20 01:19:38;;;;;;;1.73;1.20;;;;;;;11.81;60.92;96988.31;5093059;28;20496;-67
2021/05/20 01:22:04;;;;;;;1.57;1.43;;;;;;;11.96;60.40;96995.50;5092989;28;20707;-68
2021/05/20 01:24:30;;;;;;;1.73;1.40;;;;;;;11.79;60.70;96989.44;5093134;28;20769;-67
2021/05/20 01:26:56;;;;;;;1.63;1.10;;;;;;;11.78;60.80;96988.63;5093053;28;20487;-67
2021/05/20 01:29:21;;;;;;;2.30;1.60;;;;;;;11.33;62.54;96997.81;5092370;28;21155;-66
2021/05/20 01:31:48;;;;;;;1.87;1.50;;;;;;;11.01;63.53;97007.22;5093309;28;20193;-66
2021/05/20 01:34:14;;;;;;;2.00;1.70;;;;;;;11.15;63.68;97001.38;5094301;28;20559;-66
2021/05/20 01:36:39;;;;;;;3.43;1.70;;;;;;;11.33;62.62;97000.44;5074920;28;20453;-68
2021/05/20 01:39:05;;;;;;;3.30;1.70;;;;;;;11.51;61.71;96998.47;5091070;28;20280;-66
2021/05/20 01:41:31;;;;;;;2.37;1.20;;;;;;;11.43;61.97;96995.84;5092893;28;20210;-66
2021/05/20 01:43:56;;;;;;;1.60;1.50;;;;;;;11.50;61.61;96996.81;5094022;28;20640;-68
2021/05/20 01:46:22;;;;;;;3.37;1.50;;;;;;;10.89;64.13;96998.88;5094393;28;20176;-67
2021/05/20 01:48:48;;;;;;;2.23;1.47;;;;;;;11.41;62.34;97004.84;5093963;28;20177;-67
2021/05/20 01:51:16;;;;;;;3.57;1.40;;;;;;;10.85;64.44;96998.34;5092306;28;21057;-66
2021/05/20 01:53:44;;;;;;;3.17;1.43;;;;;;;10.48;65.44;97009.19;5094342;28;20178;-68
2021/05/20 01:56:10;;;;;;;2.43;1.57;;;;;;;10.70;65.21;97002.56;5080904;28;20497;-67
2021/05/20 01:58:37;;;;;;;3.30;1.77;;;;;;;11.09;63.32;97001.19;5094919;28;20424;-67
2021/05/20 02:01:03;;;;;;;1.33;1.23;;;;;;;11.09;63.30;96998.56;5094563;28;20435;-67
2021/05/20 02:03:30;;;;;;;1.77;1.27;;;;;;;11.00;63.50;97002.97;5093615;28;20734;-67
2021/05/20 02:06:01;;;;;;;1.50;1.30;;;;;;;10.74;64.26;97004.72;5077996;28;20918;-67
2021/05/20 02:08:27;;;;;;;1.40;1.30;;;;;;;10.75;64.06;97008.13;5083587;28;20425;-67
2021/05/20 02:10:53;;;;;;;5.33;1.50;;;;;;;10.68;64.93;97007.13;5086881;28;20435;-67
2021/05/20 02:13:19;;;;;;;3.00;1.60;;;;;;;10.52;64.92;97008.69;5077378;28;20415;-67
2021/05/20 02:15:45;;;;;;;1.93;1.33;;;;;;;10.87;63.21;97012.09;5094126;28;20239;-67
2021/05/20 02:18:10;;;;;;;2.97;1.57;;;;;;;10.95;62.89;97011.31;5094360;28;20416;-66
2021/05/20 02:20:37;;;;;;;1.40;1.23;;;;;;;10.94;62.81;97009.69;5094325;28;20245;-67
2021/05/20 02:23:03;;;;;;;2.10;1.50;;;;;;;10.73;63.72;97020.56;5093937;28;20185;-68
2021/05/20 02:25:29;;;;;;;1.50;1.40;;;;;;;10.50;63.76;97020.31;5093542;28;20423;-68
2021/05/20 02:27:55;;;;;;;2.03;1.63;;;;;;;10.59;63.90;97025.44;5077159;28;20886;-68
2021/05/20 02:30:23;;;;;;;1.37;1.27;;;;;;;10.67;63.13;97018.59;5077966;28;20447;-68
2021/05/20 02:32:49;;;;;;;3.87;1.43;;;;;;;10.06;65.60;97026.44;5094560;28;20185;-69
2021/05/20 02:35:15;;;;;;;3.00;1.53;;;;;;;10.11;65.79;97021.53;5085711;28;20428;-68
2021/05/20 02:37:41;;;;;;;1.83;1.47;;;;;;;9.89;66.63;97028.91;5084441;28;20430;-67
2021/05/20 02:40:09;;;;;;;6.70;1.40;;;;;;;9.55;67.23;97019.16;5090554;28;20213;-67
2021/05/20 02:42:35;;;;;;;4.13;1.50;;;;;;;9.80;67.00;97014.13;5081372;28;20921;-66
2021/05/20 02:45:03;;;;;;;1.43;1.30;;;;;;;9.92;66.58;97012.91;5093728;28;20415;-67
2021/05/20 02:47:29;;;;;;;1.60;1.40;;;;;;;9.89;66.97;97025.50;5083973;28;20270;-66
2021/05/20 02:49:54;;;;;;;1.57;1.47;;;;;;;10.05;66.23;97016.91;5053376;28;21058;-67
2021/05/20 02:52:20;;;;;;;1.80;1.60;;;;;;;9.51;68.27;97025.66;5092092;28;20177;-66
2021/05/20 02:54:45;;;;;;;4.70;1.50;;;;;;;9.95;66.59;97022.25;5091916;28;20178;-67
2021/05/20 02:57:11;;;;;;;2.20;1.40;;;;;;;10.19;65.96;97013.75;5091308;28;20602;-67
2021/05/20 02:59:37;;;;;;;2.00;1.53;;;;;;;9.88;66.78;97018.59;5091694;28;20170;-69
2021/05/20 03:02:04;;;;;;;1.50;1.40;;;;;;;9.87;67.07;97025.63;5088071;28;20188;-67
2021/05/20 03:04:37;;;;;;;1.60;1.30;;;;;;;10.12;66.09;97023.19;5061464;28;20181;-66
2021/05/20 03:07:04;;;;;;;1.60;1.30;;;;;;;10.07;66.24;97030.69;5079077;28;20839;-67
2021/05/20 03:09:30;;;;;;;2.33;1.80;;;;;;;9.81;66.95;97026.25;5091290;28;20420;-66
2021/05/20 03:11:57;;;;;;;2.17;1.17;;;;;;;10.00;66.36;97025.25;5088485;28;20419;-67
2021/05/20 03:14:23;;;;;;;1.50;1.40;;;;;;;9.98;66.46;97028.00;5090969;28;20420;-67
2021/05/20 03:16:49;;;;;;;1.90;1.70;;;;;;;10.07;66.85;97033.31;5091351;28;20961;-68
2021/05/20 03:19:15;;;;;;;1.80;1.47;;;;;;;10.01;67.26;97031.28;5091724;28;20426;-68
2021/05/20 03:21:41;;;;;;;1.50;1.33;;;;;;;9.60;70.04;97022.13;5091501;28;20194;-65
2021/05/20 03:24:07;;;;;;;2.23;1.40;;;;;;;9.42;71.52;97037.03;5073175;28;20791;-66
2021/05/20 03:26:33;;;;;;;1.97;1.53;;;;;;;10.10;69.32;97031.19;5067085;28;20447;-67
2021/05/20 03:28:59;;;;;;;2.70;1.80;;;;;;;10.01;69.69;97028.66;5083115;28;20428;-67
2021/05/20 03:31:24;;;;;;;2.07;1.87;;;;;;;10.01;70.25;97036.53;5066779;28;20217;-66
2021/05/20 03:33:50;;;;;;;2.30;1.63;;;;;;;9.80;70.97;97048.16;5082816;28;20255;-67
2021/05/20 03:36:15;;;;;;;2.43;1.40;;;;;;;9.94;70.63;97034.53;5077754;28;20198;-67
2021/05/20 03:38:41;;;;;;;1.70;1.60;;;;;;;9.55;71.82;97047.09;5088673;28;20265;-67
2021/05/20 03:41:06;;;;;;;3.00;1.70;;;;;;;9.55;72.68;97042.72;5066386;28;20534;-68
2021/05/20 03:43:33;;;;;;;3.03;1.60;;;;;;;9.48;72.73;97039.03;5074621;28;20206;-67
2021/05/20 03:45:59;;;;;;;2.10;1.70;;;;;;;9.47;73.19;97040.00;5074708;28;20201;-66
2021/05/20 03:48:24;;;;;;;4.00;2.03;;;;;;;9.98;70.92;97035.84;5077068;28;20923;-67
2021/05/20 03:50:50;;;;;;;2.03;1.67;;;;;;;9.58;72.83;97039.78;5078654;28;20198;-67
2021/05/20 03:53:16;;;;;;;2.17;1.60;;;;;;;9.62;72.02;97042.94;5081538;28;20427;-68
2021/05/20 03:55:42;;;;;;;3.10;1.63;;;;;;;9.64;72.65;97046.22;5088341;28;20186;-70
2021/05/20 03:58:07;;;;;;;3.07;1.63;;;;;;;9.66;72.27;97049.50;5086971;28;20683;-67
2021/05/20 04:00:33;;;;;;;5.40;1.83;;;;;;;9.87;71.78;97051.81;5075324;28;20198;-66
2021/05/20 04:02:58;;;;;;;2.03;1.50;;;;;;;9.77;72.19;97056.31;5091601;28;20185;-68
2021/05/20 04:05:24;;;;;;;1.80;1.70;;;;;;;9.96;71.88;97057.94;5090458;28;20180;-66
2021/05/20 04:07:49;;;;;;;2.10;1.47;;;;;;;10.01;71.51;97049.63;5073119;28;20731;-66
2021/05/20 04:10:15;;;;;;;2.57;1.73;;;;;;;10.05;70.95;97050.97;5074107;28;20194;-66
2021/05/20 04:12:41;;;;;;;1.57;1.40;;;;;;;9.79;71.96;97062.22;5075267;28;20171;-66
2021/05/20 04:15:07;;;;;;;3.83;1.87;;;;;;;10.13;70.75;97056.25;5076571;28;20190;-68
2021/05/20 04:17:33;;;;;;;3.10;1.50;;;;;;;9.89;70.93;97065.56;5077016;28;20510;-66
2021/05/20 04:19:58;;;;;;;1.43;1.33;;;;;;;9.95;70.33;97056.28;5076403;28;20439;-66
2021/05/20 04:22:24;;;;;;;3.53;1.67;;;;;;;10.44;69.20;97053.22;5082452;28;20413;-67
2021/05/20 04:24:49;;;;;;;1.93;1.50;;;;;;;10.06;70.00;97060.47;5074792;28;20179;-67
2021/05/20 04:27:15;;;;;;;2.37;1.50;;;;;;;9.55;71.76;97068.03;5072493;28;20649;-68
2021/05/20 04:29:41;;;;;;;2.33;1.37;;;;;;;9.61;72.34;97063.03;5073940;28;20386;-67
2021/05/20 04:32:08;;;;;;;1.50;1.30;;;;;;;9.55;71.95;97063.63;5073564;28;20180;-67
2021/05/20 04:34:34;;;;;;;2.00;1.30;;;;;;;10.01;71.40;97060.09;5073548;28;20434;-67
2021/05/20 04:36:59;;;;;;;2.53;1.70;;;;;;;9.92;71.34;97061.81;5073067;28;20464;-67
2021/05/20 04:39:25;;;;;;;1.60;1.50;;;;;;;10.39;69.90;97060.69;5077025;28;20966;-66
2021/05/20 04:41:50;;;;;;;1.30;1.10;;;;;;;9.99;71.24;97061.06;5077477;28;20243;-67
2021/05/20 04:44:16;;;;;;;7.13;1.47;;;;;;;9.59;71.84;97064.16;5073023;28;20265;-67
2021/05/20 04:46:42;;;;;;;2.17;1.47;;;;;;;9.57;72.87;97063.47;5073499;28;20261;-67
2021/05/20 04:49:13;;;;;;;1.90;1.67;;;;;;;10.07;71.71;97062.09;5073941;28;20239;-66
2021/05/20 04:51:40;;;;;;;1.40;1.30;;;;;;;10.32;70.69;97070.13;5073248;28;20205;-69
2021/05/20 04:54:06;;;;;;;3.00;1.60;;;;;;;10.04;71.50;97068.44;5085032;28;20896;-69
2021/05/20 04:56:32;;;;;;;3.73;1.57;;;;;;;10.54;69.80;97061.78;5075264;28;20476;-68
2021/05/20 04:58:57;;;;;;;1.73;1.50;;;;;;;10.65;68.72;97067.72;5073597;28;20415;-69
2021/05/20 05:01:23;;;;;;;2.10;1.67;;;;;;;10.16;70.00;97071.66;5073663;28;20202;-67
2021/05/20 05:03:48;;;;;;;1.30;1.20;;;;;;;10.29;69.62;97079.09;5081139;28;20178;-65
2021/05/20 05:06:14;;;;;;;1.37;1.27;;;;;;;10.32;69.13;97083.22;5077569;28;20174;-68
2021/05/20 05:08:40;;;;;;;1.50;1.27;;;;;;;10.48;69.22;97082.53;5088262;28;20209;-69
2021/05/20 05:11:05;;;;;;;3.57;1.70;;;;;;;9.73;71.67;97094.19;5098459;28;20197;-68
2021/05/20 05:13:31;;;;;;;1.40;1.30;;;;;;;9.96;71.14;97092.78;5086666;28;20320;-66
2021/05/20 05:15:57;;;;;;;2.43;1.67;;;;;;;9.93;71.35;97093.09;5073407;28;20568;-67
2021/05/20 05:18:23;;;;;;;2.23;1.60;;;;;;;10.08;71.19;97090.75;5082970;28;20206;-66
2021/05/20 05:20:48;;;;;;;5.90;1.90;;;;;;;10.40;70.16;97094.59;5071854;28;20449;-67
2021/05/20 05:23:14;;;;;;;1.80;1.70;;;;;;;9.83;72.14;97097.56;5083707;28;20432;-68
2021/05/20 05:25:40;;;;;;;1.60;1.40;;;;;;;10.13;70.49;97093.75;5076947;28;20193;-67
2021/05/20 05:28:05;;;;;;;2.00;1.80;;;;;;;10.75;69.06;97094.63;5069931;28;20582;-67
2021/05/20 05:30:31;;;;;;;2.33;1.50;;;;;;;11.02;68.28;97095.41;5080330;28;20561;-67
2021/05/20 05:32:57;;;;;;;2.27;1.60;;;;;;;11.28;67.52;97094.53;5048993;28;20871;-67
2021/05/20 05:35:23;;;;;;;1.73;1.30;;;;;;;11.53;67.14;97095.41;5083311;28;20597;-68
2021/05/20 05:37:48;;;;;;;1.97;1.53;;;;;;;11.97;65.91;97103.03;5092640;28;20181;-66
2021/05/20 05:40:15;;;;;;;1.73;1.60;;;;;;;11.75;65.20;97108.91;5092753;28;20629;-66
2021/05/20 05:42:41;;;;;;;4.30;1.60;;;;;;;11.86;65.36;97105.13;5093612;28;20182;-66
2021/05/20 05:45:07;;;;;;;2.40;1.30;;;;;;;12.04;64.34;97110.25;5081368;28;20425;-66
2021/05/20 05:47:32;;;;;;;1.40;1.23;;;;;;;12.09;64.28;97116.69;5080283;28;20413;-66
2021/05/20 05:50:05;;;;;;;1.67;1.40;;;;;;;12.01;64.83;97119.28;5091634;28;20934;-66
2021/05/20 05:52:31;;;;;;;3.20;1.73;;;;;;;12.12;64.46;97121.59;5090017;28;20247;-68
2021/05/20 05:54:57;;;;;;;5.03;2.20;;;;;;;12.40;63.33;97128.34;5073802;28;20823;-68
2021/05/20 05:57:22;;;;;;;2.17;1.47;;;;;;;12.07;64.12;97137.03;5093219;28;20316;-68
2021/05/20 05:59:49;;;;;;;3.37;1.67;;;;;;;11.98;63.48;97135.38;5085899;28;20232;-68
2021/05/20 06:02:17;;;;;;;2.00;1.80;;;;;;;11.45;65.11;97134.75;5092011;28;20551;-67
2021/05/20 06:04:42;;;;;;;3.13;1.57;;;;;;;12.04;64.22;97134.72;5091146;28;20435;-68
2021/05/20 06:07:08;;;;;;;1.53;1.43;;;;;;;11.76;64.22;97140.25;5092892;28;20408;-67
2021/05/20 06:09:34;;;;;;;2.83;1.60;;;;;;;11.94;64.68;97144.56;5093197;28;20285;-67
2021/05/20 06:11:59;;;;;;;2.73;1.80;;;;;;;12.15;63.69;97141.47;5083598;28;20181;-67
2021/05/20 06:14:25;;;;;;;2.60;1.50;;;;;;;12.39;63.28;97138.00;5091573;28;20656;-69
2021/05/20 06:16:51;;;;;;;1.63;1.40;;;;;;;12.52;62.35;97132.25;5093851;28;20205;-65
2021/05/20 06:19:16;;;;;;;2.13;1.60;;;;;;;12.22;63.14;97141.66;5092419;28;20645;-66
2021/05/20 06:21:42;;;;;;;4.03;1.70;;;;;;;12.18;63.50;97141.13;5092247;28;20194;-67
2021/05/20 06:24:08;;;;;;;2.70;2.00;;;;;;;12.26;63.27;97142.94;5083877;28;20205;-71
2021/05/20 06:26:33;;;;;;;2.87;1.80;;;;;;;11.79;63.92;97146.97;5076655;28;20219;-71
2021/05/20 06:28:59;;;;;;;1.90;1.73;;;;;;;12.43;62.88;97143.75;5092741;28;20439;-68
2021/05/20 06:31:25;;;;;;;6.63;2.00;;;;;;;12.65;61.79;97146.72;5077644;28;20526;-67
2021/05/20 06:33:50;;;;;;;3.20;1.60;;;;;;;13.28;60.12;97137.13;5090803;28;20174;-67
2021/05/20 06:36:17;;;;;;;1.90;1.57;;;;;;;13.22;59.88;97140.47;5091370;28;20186;-66
2021/05/20 06:38:42;;;;;;;1.70;1.60;;;;;;;12.99;59.33;97143.81;5092049;28;20199;-71
2021/05/20 06:41:09;;;;;;;2.77;1.73;;;;;;;13.04;59.30;97140.69;5092383;28;20428;-71
2021/05/20 06:43:38;;;;;;;1.50;1.40;;;;;;;13.64;58.42;97146.38;5082414;28;20268;-68
2021/05/20 06:46:05;;;;;;;2.40;1.30;;;;;;;13.53;58.12;97150.22;5090073;28;20416;-68
2021/05/20 06:48:31;;;;;;;3.43;1.60;;;;;;;12.91;59.31;97149.09;5088187;28;20983;-68
2021/05/20 06:50:56;;;;;;;1.70;1.60;;;;;;;13.09;58.72;97154.16;5090100;28;20436;-68
2021/05/20 06:53:24;;;;;;;4.40;1.50;;;;;;;13.30;57.53;97158.84;5091657;28;20197;-69
2021/05/20 06:55:53;;;;;;;6.23;1.70;;;;;;;13.35;57.90;97156.53;5091869;28;20197;-69
2021/05/20 07:01:03;;;;;;;1.73;1.63;;;;;;;13.72;55.63;97158.69;5090524;28;20447;-69
2021/05/20 07:03:28;;;;;;;2.30;2.00;;;;;;;13.41;57.37;97154.22;5088991;28;20427;-70
2021/05/20 07:05:55;;;;;;;2.30;2.10;;;;;;;13.20;58.40;97161.66;5089251;28;20322;-70
2021/05/20 07:08:21;;;;;;;2.20;1.93;;;;;;;13.46;57.39;97165.06;5058356;28;20186;-70
2021/05/20 07:10:46;;;;;;;3.80;2.27;;;;;;;13.52;57.68;97159.94;5091345;28;20624;-70
2021/05/20 07:13:12;;;;;;;2.60;1.80;;;;;;;13.78;56.02;97163.25;5090708;28;20424;-69
2021/05/20 07:15:38;;;;;;;7.00;2.00;;;;;;;13.88;55.85;97158.56;5089789;28;20209;-70
2021/05/20 07:18:04;;;;;;;2.27;1.80;;;;;;;14.56;53.48;97150.81;5090678;28;20541;-69
2021/05/20 07:20:29;;;;;;;2.13;1.93;;;;;;;13.59;56.18;97159.25;5090589;28;20204;-68
2021/05/20 07:22:55;;;;;;;1.90;1.80;;;;;;;14.01;54.66;97165.91;5090654;28;20178;-70
2021/05/20 07:25:20;;;;;;;5.03;2.47;;;;;;;14.12;54.59;97160.22;5090565;28;20178;-68
2021/05/20 07:27:46;;;;;;;3.63;2.10;;;;;;;13.93;55.37;97160.69;5091641;28;20291;-69
2021/05/20 07:30:12;;;;;;;11.03;3.40;;;;;;;13.75;55.40;97164.44;5090631;28;20205;-68
2021/05/20 07:32:38;;;;;;;6.97;2.97;;;;;;;14.52;53.80;97167.97;5099397;28;20648;-69
2021/05/20 07:35:05;;;;;;;11.33;1.60;;;;;;;13.78;55.70;97168.53;5084334;28;20431;-70
2021/05/20 07:37:31;;;;;;;1.83;1.70;;;;;;;14.12;54.41;97170.78;5089751;28;20206;-69
2021/05/20 07:39:57;;;;;;;2.10;1.70;;;;;;;14.04;54.15;97172.66;5090562;28;20444;-69
2021/05/20 07:42:22;;;;;;;3.00;1.83;;;;;;;13.51;55.86;97178.53;5090428;28;20186;-69
2021/05/20 07:44:53;;;;;;;2.60;1.97;;;;;;;13.91;54.48;97168.78;5090911;28;20174;-70
2021/05/20 07:47:18;;;;;;;3.70;1.90;;;;;;;14.17;54.15;97166.81;5091258;28;20219;-69
2021/05/20 07:49:44;;;;;;;3.37;1.37;;;;;;;13.70;54.36;97171.22;5088221;28;20412;-69
2021/05/20 07:52:10;;;;;;;14.30;3.30;;;;;;;13.96;53.67;97169.06;5089484;28;20234;-68
2021/05/20 07:54:35;;;;;;;3.20;1.80;;;;;;;14.25;53.33;97167.53;5091009;28;20178;-69
2021/05/20 07:57:01;;;;;;;6.70;2.30;;;;;;;14.28;52.84;97169.81;5089745;28;20256;-68
2021/05/20 07:59:27;;;;;;;1.80;1.50;;;;;;;14.77;51.87;97166.97;5090036;28;20182;-69
2021/05/20 08:02:02;;;;;;;1.40;1.30;;;;;;;14.47;52.06;97173.00;5090694;28;20515;-70
2021/05/20 08:04:29;;;;;;;3.43;1.30;;;;;;;14.22;52.81;97169.72;5089405;28;20205;-69
2021/05/20 08:07:03;;;;;;;5.13;1.10;;;;;;;13.95;52.71;97167.44;5091481;28;20412;-70
2021/05/20 08:11:57;;;;;;;1.53;1.17;;;;;;;13.90;53.47;97164.50;5087381;28;20440;-69
2021/05/20 08:14:23;;;;;;;1.87;1.20;;;;;;;14.10;52.41;97171.97;5093751;28;20188;-67
2021/05/20 08:16:49;;;;;;;1.80;1.70;;;;;;;14.43;51.81;97172.50;5092110;28;20464;-70
2021/05/20 08:19:14;;;;;;;3.67;1.73;;;;;;;14.76;51.55;97165.34;5094235;28;20561;-69
2021/05/20 08:21:41;;;;;;;2.50;1.20;;;;;;;15.31;50.06;97160.63;5081854;28;20207;-69
2021/05/20 08:24:07;;;;;;;1.97;1.33;;;;;;;14.99;50.55;97166.09;5090716;28;20189;-70
2021/05/20 08:26:33;;;;;;;2.70;1.20;;;;;;;14.68;51.56;97166.25;5093564;28;20412;-69
2021/05/20 08:28:58;;;;;;;2.87;1.37;;;;;;;14.95;49.87;97159.53;5094299;28;20442;-69
2021/05/20 08:31:25;;;;;;;1.20;1.10;;;;;;;15.43;48.93;97155.72;5093526;28;20205;-69
2021/05/20 08:33:51;;;;;;;3.07;1.30;;;;;;;15.28;48.63;97159.19;5092344;28;20174;-70
2021/05/20 08:36:17;;;;;;;2.20;1.23;;;;;;;14.81;49.51;97162.97;5093586;28;20452;-69
2021/05/20 08:38:43;;;;;;;1.30;1.13;;;;;;;14.66;50.04;97166.41;5094140;28;20415;-69
2021/05/20 08:41:09;;;;;;;1.70;1.60;;;;;;;15.02;49.14;97155.19;5094423;28;20288;-68
2021/05/20 08:43:35;;;;;;;2.00;1.57;;;;;;;15.39;48.06;97149.16;5086280;28;20262;-69
2021/05/20 08:46:00;;;;;;;3.57;1.13;;;;;;;15.55;46.96;97142.81;5093304;28;20500;-68
2021/05/20 08:48:26;;;;;;;2.00;1.37;;;;;;;15.20;47.80;97149.53;5094159;28;20306;-68
2021/05/20 08:50:52;;;;;;;1.10;1.00;;;;;;;15.38;47.75;97148.31;5090857;28;20197;-68
2021/05/20 08:53:17;;;;;;;1.60;0.97;;;;;;;14.63;49.71;97152.72;5092875;28;20177;-71
2021/05/20 08:55:43;;;;;;;3.30;1.00;;;;;;;14.72;49.37;97168.31;5078945;28;20195;-70
2021/05/20 08:58:10;;;;;;;1.20;1.10;;;;;;;14.32;50.10;97164.22;5090554;28;20173;-68
2021/05/20 09:00:37;;;;;;;1.93;1.50;;;;;;;14.38;50.42;97152.94;5093207;28;20352;-70
2021/05/20 09:03:11;;;;;;;5.87;1.60;;;;;;;14.42;50.41;97155.06;5075593;28;20837;-68
2021/05/20 09:05:37;;;;;;;1.10;1.00;;;;;;;14.42;49.63;97162.16;5083651;28;20536;-70
2021/05/20 09:08:08;;;;;;;1.30;1.07;;;;;;;14.02;50.39;97164.09;5093223;28;20447;-68
2021/05/20 09:10:34;;;;;;;2.57;1.30;;;;;;;14.51;49.19;97163.69;5093747;28;20522;-70
2021/05/20 09:13:08;;;;;;;1.20;1.00;;;;;;;14.76;48.84;97162.69;5090483;28;20974;-68
2021/05/20 09:15:39;;;;;;;2.83;1.30;;;;;;;15.33;48.10;97151.50;5093387;28;21046;-68
2021/05/20 09:18:15;;;;;;;9.20;3.80;;;;;;;15.34;48.15;97152.34;5076461;28;20429;-70
2021/05/20 09:20:45;;;;;;;16.83;5.00;;;;;;;15.36;46.71;97155.63;5093832;28;20450;-69
2021/05/20 09:23:13;;;;;;;3.03;1.67;;;;;;;15.39;45.99;97155.22;5097917;28;20512;-70
2021/05/20 09:25:40;;;;;;;27.97;7.30;;;;;;;15.00;47.16;97157.16;5097566;28;20412;-70
2021/05/20 09:28:08;;;;;;;2.90;1.63;;;;;;;15.34;45.54;97162.91;5080098;28;20467;-69
2021/05/20 09:30:36;;;;;;;1.43;1.00;;;;;;;15.13;46.56;97166.28;5076568;28;20454;-70
2021/05/20 09:33:11;;;;;;;1.60;1.10;;;;;;;15.25;46.17;97174.56;5091395;28;20444;-68
2021/05/20 09:35:39;;;;;;;4.07;1.93;;;;;;;15.30;47.08;97158.97;5092329;28;20474;-68
2021/05/20 09:38:20;;;;;;;21.13;4.50;;;;;;;14.77;48.62;97166.97;5083068;28;20747;-69
2021/05/20 09:40:51;;;;;;;5.70;1.90;;;;;;;14.79;48.50;97165.78;5077173;28;20459;-68
2021/05/20 09:43:32;;;;;;;15.93;4.40;;;;;;;14.88;48.05;97169.97;5069483;28;20416;-69
2021/05/20 09:46:12;;;;;;;3.00;1.80;;;;;;;14.88;48.28;97169.19;5085692;28;20796;-68
2021/05/20 09:48:40;;;;;;;2.90;1.60;;;;;;;15.14;47.79;97163.44;5075496;28;20409;-69
2021/05/20 09:51:07;;;;;;;1.97;1.23;;;;;;;15.20;47.54;97167.16;5087253;28;20450;-70
2021/05/20 09:53:44;;;;;;;2.57;1.50;;;;;;;15.45;46.86;97158.97;5065195;28;20893;-69
2021/05/20 09:56:10;;;;;;;1.07;0.97;;;;;;;16.01;45.39;97142.53;5089695;28;20455;-70
2021/05/20 09:58:36;;;;;;;1.90;1.13;;;;;;;15.69;45.85;97149.91;5091172;28;20422;-70
2021/05/20 10:01:04;;;;;;;1.20;1.00;;;;;;;15.75;45.38;97151.78;5092435;28;20455;-69
2021/05/20 10:03:35;;;;;;;2.00;1.50;;;;;;;15.31;46.70;97148.22;5092234;28;20207;-69
2021/05/20 10:06:00;;;;;;;2.80;1.07;;;;;;;15.31;46.42;97150.06;5089251;28;20416;-70
2021/05/20 10:08:30;;;;;;;1.00;0.80;;;;;;;15.11;46.93;97163.81;5083331;28;20865;-70
2021/05/20 10:10:58;;;;;;;3.73;1.40;;;;;;;15.05;46.39;97159.25;5067589;28;20191;-70
2021/05/20 10:13:25;;;;;;;2.23;1.40;;;;;;;15.39;45.38;97143.88;5075032;28;20433;-69
2021/05/20 10:15:52;;;;;;;1.50;1.23;;;;;;;15.40;45.83;97148.94;5084666;28;20456;-70
2021/05/20 10:18:20;;;;;;;1.93;1.03;;;;;;;15.76;43.88;97153.44;5059569;28;20424;-68
2021/05/20 10:20:47;;;;;;;2.63;0.90;;;;;;;16.56;41.24;97145.47;5074204;28;20488;-70
2021/05/20 10:23:13;;;;;;;1.10;0.77;;;;;;;16.81;40.51;97138.91;5091793;28;20515;-70
2021/05/20 10:25:40;;;;;;;1.90;1.00;;;;;;;16.97;39.80;97140.44;5074646;28;20412;-70
2021/05/20 10:28:07;;;;;;;2.23;0.87;;;;;;;17.03;37.12;97129.09;5074869;28;20822;-70
2021/05/20 10:30:34;;;;;;;2.80;1.10;;;;;;;17.12;38.50;97132.41;5091065;28;20519;-72
2021/05/20 10:33:00;;;;;;;3.53;0.90;;;;;;;16.89;38.02;97134.28;5074106;28;20433;-68
2021/05/20 10:35:49;;;;;;;1.00;0.60;;;;;;;16.98;37.84;97126.22;5087555;28;20427;-68
2021/05/20 10:38:36;;;;;;;2.03;0.80;;;;;;;16.79;38.89;97132.97;5091709;28;20605;-70
2021/05/20 10:41:11;;;;;;;1.00;0.90;;;;;;;16.97;38.76;97136.00;5074446;28;20455;-71
2021/05/20 10:43:39;;;;;;;1.60;0.80;;;;;;;16.95;37.91;97132.72;5078860;28;20421;-68
2021/05/20 10:46:15;;;;;;;1.10;0.90;;;;;;;16.67;39.35;97130.88;5088240;28;20432;-68
2021/05/20 10:49:02;;;;;;;4.23;2.70;;;;;;;16.62;40.43;97133.31;5074959;28;20534;-70
2021/05/20 10:51:35;;;;;;;1.10;0.80;;;;;;;16.57;40.21;97133.03;5090008;28;20568;-69
2021/05/20 10:54:04;;;;;;;1.60;1.10;;;;;;;16.92;39.72;97129.63;5091368;28;21032;-69
2021/05/20 10:56:30;;;;;;;1.40;0.90;;;;;;;17.22;37.98;97127.56;5091421;28;20542;-70
2021/05/20 10:58:57;;;;;;;1.10;0.80;;;;;;;17.87;36.85;97124.53;5091392;28;20478;-69
2021/05/20 11:01:27;;;;;;;1.30;0.70;;;;;;;18.47;35.41;97118.47;5086948;28;20503;-68
2021/05/20 11:03:54;;;;;;;3.00;0.70;;;;;;;19.79;33.87;97108.69;5086608;28;20420;-70
2021/05/20 11:06:24;;;;;;;0.90;0.60;;;;;;;20.67;30.47;97111.53;5075081;28;20453;-69
2021/05/20 11:08:50;;;;;;;1.00;0.80;;;;;;;20.40;30.77;97109.94;5089516;28;20416;-68
2021/05/20 11:11:31;;;;;;;2.40;0.80;;;;;;;19.50;30.69;97094.94;5091069;28;21003;-71
2021/05/20 11:14:00;;;;;;;1.10;0.77;;;;;;;19.16;32.83;97096.94;5091576;28;20182;-69
2021/05/20 11:16:29;;;;;;;1.00;0.80;;;;;;;18.51;36.26;97103.78;5084053;28;20537;-68
2021/05/20 11:19:24;;;;;;;1.30;0.80;;;;;;;17.75;37.83;97102.28;5090075;28;20493;-71
2021/05/20 11:21:59;;;;;;;1.40;0.87;;;;;;;17.57;38.13;97095.69;5091067;28;20531;-71
2021/05/20 11:24:32;;;;;;;0.90;0.70;;;;;;;16.96;38.58;97105.25;5090585;28;20417;-69
2021/05/20 11:26:59;;;;;;;0.90;0.70;;;;;;;16.70;39.50;97103.19;5091145;28;20432;-70
2021/05/20 11:29:26;;;;;;;2.33;0.80;;;;;;;17.09;38.81;97106.31;5088662;28;20793;-70
2021/05/20 11:32:14;;;;;;;1.83;0.73;;;;;;;17.41;37.63;97098.69;5089714;28;20543;-69
2021/05/20 11:37:21;;;;;;;1.47;0.90;;;;;;;17.59;37.09;97096.31;5090336;28;20455;-70
2021/05/20 11:39:47;;;;;;;3.20;0.73;;;;;;;17.54;36.83;97092.63;5090831;28;20451;-71
2021/05/20 11:42:21;;;;;;;1.10;0.70;;;;;;;17.71;35.95;97095.75;5090624;28;20930;-70